Frenchville, Maine
Current Conditions -  °F | °C
As of 1:53 AM on Wednesday 22 Oct 2014 (Local Time) from KFVE Reporting Station
Overcast Overcast  
Wind Chill: 30°   Ceiling: 6000
Heat Index: 36°   Visibility: 10mi
Dew Point: 28°   Wind: 8mph
Humidity: 73%   Direction: 20°NNE
Pressure: 30.3"   Gusts: NA
Location:  47.28°N, 68.38°W
Report Text: KFVE 220553Z AUTO 02007KT 10SM OVC060 02/M02 A3030 RMK AO2 SLP268 T00221022 10039 20011 51010
Loading
Personal Weather Stations






























Interactive Weather Map
Tropical Storm Tracking
New forecast layout! Learn more

10-Day Weather Forecast

Advertisements
Track Severe Weather on mobile